Time;durP1;ratioP1;P1;durP2;ratioP2;P2;SDS_P1;SDS_P2;PMS_P1;PMS_P2;Temp;Humidity;BMP_temperature;BMP_pressure;BME280_temperature;BME280_humidity;BME280_pressure;Samples;Min_cycle;Max_cycle;Signal;HPM_P1;HPM_P2
2023/05/10 00:00:47;;;;;;;1.00;0.60;;;;;;;22.60;51.09;99707.63;4536507;28;20033;-62
2023/05/10 00:02:57;;;;;;;0.50;0.50;;;;;;;22.66;51.38;99711.78;4537540;28;20041;-62
2023/05/10 00:05:08;;;;;;;0.60;0.60;;;;;;;22.62;51.33;99701.47;4534041;28;20399;-62
2023/05/10 00:07:19;;;;;;;0.60;0.60;;;;;;;22.63;51.11;99708.91;4536791;28;20037;-62
2023/05/10 00:09:29;;;;;;;0.60;0.60;;;;;;;22.65;51.27;99718.75;4517697;28;20037;-62
2023/05/10 00:11:40;;;;;;;0.60;0.57;;;;;;;22.64;51.19;99704.78;4535846;28;20040;-62
2023/05/10 00:13:50;;;;;;;0.50;0.50;;;;;;;22.66;51.04;99713.84;4536230;28;20045;-63
2023/05/10 00:16:00;;;;;;;0.60;0.60;;;;;;;22.65;50.95;99704.38;4536175;28;20347;-63
2023/05/10 00:18:11;;;;;;;0.60;0.60;;;;;;;22.65;51.15;99700.66;4536813;28;20369;-62
2023/05/10 00:20:21;;;;;;;0.80;0.65;;;;;;;22.68;51.13;99705.63;4534830;28;20044;-63
2023/05/10 00:22:32;;;;;;;0.60;0.60;;;;;;;22.65;51.08;99709.31;4536125;28;20037;-62
2023/05/10 00:24:42;;;;;;;0.60;0.60;;;;;;;22.64;50.93;99694.13;4517900;28;20037;-62
2023/05/10 00:26:53;;;;;;;0.52;0.52;;;;;;;22.62;51.38;99695.72;4536635;28;20116;-62
2023/05/10 00:29:03;;;;;;;0.68;0.68;;;;;;;22.63;51.15;99694.53;4537013;28;20045;-62
2023/05/10 00:31:14;;;;;;;1.35;0.60;;;;;;;22.63;51.36;99691.63;4534809;28;20043;-63
2023/05/10 00:33:25;;;;;;;0.50;0.50;;;;;;;22.49;51.05;99668.50;4536728;28;20041;-62
2023/05/10 00:35:35;;;;;;;0.60;0.60;;;;;;;22.59;51.15;99690.78;4518310;28;20038;-62
2023/05/10 00:37:46;;;;;;;0.93;0.70;;;;;;;22.62;51.25;99689.97;4536518;28;20087;-62
2023/05/10 00:39:57;;;;;;;0.60;0.60;;;;;;;22.62;51.09;99685.06;4518074;28;20037;-63
2023/05/10 00:42:07;;;;;;;0.70;0.70;;;;;;;22.63;51.15;99694.53;4534657;28;20029;-62
2023/05/10 00:44:18;;;;;;;1.25;0.70;;;;;;;22.63;51.36;99680.13;4510109;28;20197;-62
2023/05/10 00:46:29;;;;;;;0.80;0.80;;;;;;;22.61;51.06;99685.47;4536120;28;20037;-62
2023/05/10 00:48:39;;;;;;;0.60;0.60;;;;;;;22.63;51.31;99683.81;4518503;28;20088;-63
2023/05/10 00:50:50;;;;;;;0.70;0.70;;;;;;;22.61;50.99;99685.47;4518475;28;20196;-62
2023/05/10 00:53:01;;;;;;;0.60;0.60;;;;;;;22.61;51.22;99673.97;4536725;28;20053;-63
2023/05/10 00:55:12;;;;;;;0.70;0.70;;;;;;;22.59;50.91;99674.34;4535373;28;21415;-62
2023/05/10 00:57:23;;;;;;;0.90;0.80;;;;;;;22.61;51.21;99680.50;4518402;28;20193;-62
2023/05/10 00:59:33;;;;;;;0.90;0.70;;;;;;;22.60;51.00;99675.16;4518207;28;20067;-62
2023/05/10 01:01:45;;;;;;;0.70;0.70;;;;;;;22.50;51.04;99662.34;4517557;28;20045;-62
2023/05/10 01:03:56;;;;;;;0.80;0.80;;;;;;;22.62;51.34;99682.19;4535632;28;21139;-64
2023/05/10 01:06:07;;;;;;;0.80;0.73;;;;;;;22.61;51.09;99688.34;4517712;28;20231;-63
2023/05/10 01:08:18;;;;;;;0.88;0.88;;;;;;;22.60;51.04;99678.03;4534466;28;20040;-63
2023/05/10 01:10:29;;;;;;;0.75;0.75;;;;;;;22.58;51.09;99683.41;4518255;28;20041;-62
2023/05/10 01:12:42;;;;;;;0.75;0.75;;;;;;;22.59;51.23;99687.91;4518001;28;20150;-62
2023/05/10 01:14:54;;;;;;;0.73;0.73;;;;;;;22.60;51.27;99692.41;4516400;28;20037;-62
2023/05/10 01:17:06;;;;;;;0.65;0.65;;;;;;;22.61;51.04;99694.09;4535795;28;21453;-63
2023/05/10 01:19:25;;;;;;;0.95;0.63;;;;;;;22.60;51.43;99696.13;4535764;28;20112;-63
2023/05/10 01:21:46;;;;;;;0.60;0.60;;;;;;;22.60;50.92;99692.41;4536238;28;20025;-63
2023/05/10 01:24:30;;;;;;;0.60;0.60;;;;;;;22.61;50.98;99699.84;4536074;28;20874;-62
2023/05/10 01:27:02;;;;;;;0.77;0.70;;;;;;;22.60;50.97;99703.91;4535459;28;20033;-63
2023/05/10 01:29:34;;;;;;;0.60;0.60;;;;;;;22.60;50.95;99703.91;4535931;28;20039;-63
2023/05/10 01:32:04;;;;;;;0.95;0.77;;;;;;;22.60;50.88;99703.91;4516928;28;20033;-62
2023/05/10 01:34:27;;;;;;;0.63;0.63;;;;;;;22.57;51.25;99707.59;4516332;28;20610;-63
2023/05/10 01:36:45;;;;;;;0.90;0.80;;;;;;;22.59;51.06;99716.66;4535541;28;20021;-62
2023/05/10 01:39:09;;;;;;;0.65;0.65;;;;;;;22.57;51.04;99711.31;4517266;28;20071;-62
2023/05/10 01:41:28;;;;;;;0.73;0.73;;;;;;;22.55;51.22;99704.34;4535751;28;21243;-63
2023/05/10 01:44:06;;;;;;;0.70;0.70;;;;;;;22.57;51.17;99716.22;4534683;28;20072;-63
2023/05/10 01:46:20;;;;;;;0.70;0.70;;;;;;;22.57;51.28;99710.47;4492453;28;21660;-62
2023/05/10 01:48:31;;;;;;;0.70;0.70;;;;;;;22.53;50.97;99703.91;4533659;28;20033;-62
2023/05/10 01:50:46;;;;;;;0.60;0.60;;;;;;;22.57;50.93;99717.06;4535934;28;20220;-62
2023/05/10 01:52:59;;;;;;;1.98;0.80;;;;;;;22.53;50.85;99716.25;4517626;28;20119;-62
2023/05/10 01:55:15;;;;;;;0.68;0.68;;;;;;;22.56;51.26;99723.22;4535400;28;20861;-62
2023/05/10 01:57:27;;;;;;;1.03;0.77;;;;;;;22.55;51.23;99724.47;4535496;28;20045;-62
2023/05/10 01:59:40;;;;;;;1.58;0.80;;;;;;;22.54;51.11;99725.66;4533633;28;20039;-63
2023/05/10 02:01:52;;;;;;;0.70;0.70;;;;;;;22.53;51.03;99716.25;4516743;28;20711;-63
2023/05/10 02:04:03;;;;;;;0.77;0.77;;;;;;;22.52;51.13;99723.19;4516899;28;20030;-62
2023/05/10 02:06:16;;;;;;;0.77;0.77;;;;;;;22.55;51.06;99715.84;4517002;28;20037;-62
2023/05/10 02:08:28;;;;;;;0.70;0.68;;;;;;;22.55;51.14;99733.09;4535297;28;20032;-62
2023/05/10 02:10:40;;;;;;;0.80;0.80;;;;;;;22.50;51.10;99721.94;4534617;28;20033;-63
2023/05/10 02:12:53;;;;;;;0.60;0.60;;;;;;;22.53;50.96;99730.63;4534592;28;20047;-63
2023/05/10 02:15:06;;;;;;;0.70;0.70;;;;;;;22.54;50.98;99723.63;4534407;28;20128;-62
2023/05/10 02:17:18;;;;;;;0.75;0.75;;;;;;;22.55;51.10;99730.22;4516412;28;20076;-62
2023/05/10 02:19:30;;;;;;;0.90;0.70;;;;;;;22.53;51.37;99729.78;4534859;28;20399;-62
2023/05/10 02:21:41;;;;;;;0.70;0.70;;;;;;;22.50;51.05;99730.56;4534859;28;20115;-62
2023/05/10 02:23:53;;;;;;;0.63;0.63;;;;;;;22.53;50.92;99736.38;4489727;28;20046;-63
2023/05/10 02:26:05;;;;;;;0.70;0.70;;;;;;;22.53;51.24;99738.41;4534343;28;20049;-62
2023/05/10 02:28:17;;;;;;;0.68;0.68;;;;;;;22.52;51.03;99731.00;4534704;28;20025;-62
2023/05/10 02:30:30;;;;;;;0.63;0.63;;;;;;;22.50;50.95;99736.31;4535032;28;20037;-62
2023/05/10 02:32:41;;;;;;;0.70;0.68;;;;;;;22.49;51.06;99726.00;4534955;28;20029;-62
2023/05/10 02:34:53;;;;;;;0.93;0.60;;;;;;;22.50;51.20;99728.47;4535580;28;20041;-62
2023/05/10 02:37:04;;;;;;;0.70;0.70;;;;;;;22.54;51.10;99740.03;4535329;28;20087;-62
2023/05/10 02:39:20;;;;;;;0.73;0.70;;;;;;;22.51;51.20;99729.31;4535649;28;20060;-62
2023/05/10 02:41:32;;;;;;;0.57;0.57;;;;;;;22.47;50.89;99725.63;4535373;28;20595;-62
2023/05/10 02:43:44;;;;;;;0.70;0.70;;;;;;;22.47;51.02;99728.47;4535714;28;20025;-62
2023/05/10 02:45:54;;;;;;;0.70;0.70;;;;;;;22.45;51.04;99725.19;4535447;28;20065;-62
2023/05/10 02:48:05;;;;;;;1.00;0.73;;;;;;;22.48;51.00;99724.38;4536038;28;20037;-62
2023/05/10 02:50:15;;;;;;;0.85;0.70;;;;;;;22.48;51.28;99725.22;4535960;28;20622;-62
2023/05/10 02:52:30;;;;;;;0.70;0.60;;;;;;;22.51;51.23;99729.31;4533033;28;20034;-63
2023/05/10 02:54:45;;;;;;;0.75;0.75;;;;;;;22.50;51.14;99733.44;4516891;28;20106;-62
2023/05/10 02:57:02;;;;;;;0.75;0.70;;;;;;;22.48;51.15;99736.72;4535172;28;20124;-63
2023/05/10 02:59:13;;;;;;;0.80;0.80;;;;;;;22.50;50.73;99727.69;4516485;28;20167;-62
2023/05/10 03:01:23;;;;;;;0.80;0.80;;;;;;;22.43;51.01;99731.34;4520984;28;20152;-63
2023/05/10 03:03:34;;;;;;;1.38;0.73;;;;;;;22.48;51.11;99738.75;4538931;28;20519;-62
2023/05/10 03:05:44;;;;;;;0.77;0.77;;;;;;;22.46;51.08;99729.69;4521828;28;20474;-62
2023/05/10 03:07:55;;;;;;;0.60;0.60;;;;;;;22.48;51.04;99735.88;4536862;28;20051;-63
2023/05/10 03:10:06;;;;;;;0.70;0.70;;;;;;;22.46;51.17;99735.44;4519870;28;20188;-62
2023/05/10 03:12:52;;;;;;;0.82;0.70;;;;;;;22.48;51.32;99744.50;4536800;28;20659;-63
2023/05/10 03:15:37;;;;;;;0.60;0.60;;;;;;;22.50;51.11;99742.06;4536282;28;20636;-62
2023/05/10 03:18:09;;;;;;;0.60;0.57;;;;;;;22.46;50.89;99744.91;4536787;28;20664;-63
2023/05/10 03:20:31;;;;;;;0.70;0.70;;;;;;;22.46;51.01;99738.31;4519937;28;20044;-63
2023/05/10 03:22:46;;;;;;;0.70;0.70;;;;;;;22.46;51.25;99741.19;4519135;28;20040;-62
2023/05/10 03:24:59;;;;;;;0.70;0.70;;;;;;;22.47;51.21;99746.53;4519379;28;20026;-63
2023/05/10 03:27:14;;;;;;;0.70;0.70;;;;;;;22.46;50.92;99746.94;4535390;28;20076;-62
2023/05/10 03:29:26;;;;;;;0.70;0.70;;;;;;;22.46;51.02;99746.94;4536070;28;20064;-63
2023/05/10 03:31:37;;;;;;;0.73;0.68;;;;;;;22.43;50.93;99739.97;4536881;28;21409;-63
2023/05/10 03:33:49;;;;;;;0.68;0.68;;;;;;;22.47;51.17;99745.75;4535909;28;20048;-62
2023/05/10 03:36:04;;;;;;;0.60;0.60;;;;;;;22.46;51.24;99756.41;4518915;28;20549;-63
2023/05/10 03:38:14;;;;;;;0.60;0.60;;;;;;;22.47;51.31;99757.25;4537258;28;20508;-62
2023/05/10 03:40:26;;;;;;;0.80;0.80;;;;;;;22.45;51.02;99756.81;4520094;28;20575;-63
2023/05/10 03:42:36;;;;;;;0.65;0.65;;;;;;;22.45;51.04;99754.78;4535355;28;20131;-63
2023/05/10 03:44:49;;;;;;;0.60;0.60;;;;;;;22.46;50.97;99755.56;4536745;28;20025;-63
2023/05/10 03:46:59;;;;;;;0.60;0.60;;;;;;;22.45;51.18;99756.81;4535662;28;20036;-62
2023/05/10 03:49:10;;;;;;;0.70;0.63;;;;;;;22.43;51.19;99773.63;4518092;28;20573;-62
2023/05/10 03:51:21;;;;;;;0.60;0.60;;;;;;;22.45;50.58;99771.19;4534634;28;20531;-62
2023/05/10 03:53:31;;;;;;;0.70;0.70;;;;;;;22.44;50.98;99778.97;4535971;28;20485;-63
2023/05/10 03:55:41;;;;;;;0.68;0.68;;;;;;;22.44;50.92;99769.53;4516872;28;20071;-62
2023/05/10 03:57:53;;;;;;;0.55;0.55;;;;;;;22.43;51.20;99767.88;4534080;28;20037;-62
2023/05/10 04:00:06;;;;;;;0.50;0.50;;;;;;;22.44;50.95;99775.31;4535068;28;20084;-63
2023/05/10 04:02:25;;;;;;;0.52;0.52;;;;;;;22.45;50.95;99779.81;4534143;28;20045;-63
2023/05/10 04:04:35;;;;;;;0.50;0.50;;;;;;;22.42;51.16;99787.16;4512600;28;20054;-62
2023/05/10 04:06:46;;;;;;;0.80;0.75;;;;;;;22.43;51.11;99773.63;4535884;28;20429;-62
2023/05/10 04:08:59;;;;;;;0.52;0.52;;;;;;;22.43;51.28;99785.97;4517749;28;20029;-62
2023/05/10 04:11:12;;;;;;;0.60;0.60;;;;;;;22.44;51.02;99792.56;4535948;28;20041;-64
2023/05/10 04:13:22;;;;;;;0.40;0.40;;;;;;;22.42;51.16;99789.25;4517704;28;20044;-62
2023/05/10 04:15:33;;;;;;;0.45;0.45;;;;;;;22.42;51.12;99792.91;4535688;28;20516;-62
2023/05/10 04:17:44;;;;;;;0.60;0.50;;;;;;;22.43;51.42;99797.47;4536473;28;20033;-62
2023/05/10 04:19:55;;;;;;;0.57;0.57;;;;;;;22.42;51.01;99795.00;4536188;28;20041;-63
2023/05/10 04:22:06;;;;;;;0.60;0.60;;;;;;;22.44;50.95;99801.19;4517779;28;21039;-63
2023/05/10 04:24:16;;;;;;;0.60;0.60;;;;;;;22.37;50.92;99801.09;4536496;28;20029;-62
2023/05/10 04:26:27;;;;;;;1.02;0.70;;;;;;;22.41;51.07;99804.81;4514774;28;20032;-63
2023/05/10 04:28:37;;;;;;;0.60;0.60;;;;;;;22.42;50.92;99809.38;4536581;28;20541;-63
2023/05/10 04:30:48;;;;;;;0.60;0.60;;;;;;;22.42;50.93;99818.00;4535825;28;20067;-62
2023/05/10 04:32:58;;;;;;;0.60;0.60;;;;;;;22.41;51.07;99810.56;4535693;28;20040;-63
2023/05/10 04:35:10;;;;;;;0.65;0.65;;;;;;;22.41;51.29;99814.28;4535570;28;20107;-62
2023/05/10 04:37:22;;;;;;;0.50;0.50;;;;;;;22.37;50.97;99803.97;4535179;28;21253;-62
2023/05/10 04:39:33;;;;;;;0.60;0.60;;;;;;;22.40;50.98;99814.69;4535228;28;20041;-63
2023/05/10 04:41:43;;;;;;;0.77;0.50;;;;;;;22.39;51.14;99816.72;4534602;28;20040;-62
2023/05/10 04:43:54;;;;;;;0.50;0.50;;;;;;;22.40;51.14;99821.28;4536212;28;20072;-62
2023/05/10 04:46:05;;;;;;;0.60;0.60;;;;;;;22.41;51.04;99827.81;4536337;28;20102;-63
2023/05/10 04:48:16;;;;;;;0.60;0.60;;;;;;;22.36;50.83;99813.84;4535619;28;20036;-63
2023/05/10 04:50:26;;;;;;;0.50;0.50;;;;;;;22.39;50.90;99824.56;4534654;28;20071;-62
2023/05/10 04:52:36;;;;;;;0.50;0.50;;;;;;;22.40;50.79;99835.66;4535365;28;20634;-63
2023/05/10 04:54:47;;;;;;;0.55;0.50;;;;;;;22.40;51.26;99829.06;4534947;28;20053;-63
2023/05/10 04:56:57;;;;;;;0.57;0.57;;;;;;;22.40;50.96;99835.66;4536297;28;20679;-62
2023/05/10 04:59:07;;;;;;;0.50;0.50;;;;;;;22.32;51.10;99830.22;4536868;28;20467;-62
2023/05/10 05:01:18;;;;;;;0.50;0.50;;;;;;;22.39;50.94;99841.81;4536923;28;20094;-62
2023/05/10 05:03:28;;;;;;;0.55;0.55;;;;;;;22.39;50.81;99850.44;4537040;28;20111;-62
2023/05/10 05:05:39;;;;;;;0.52;0.52;;;;;;;22.33;51.20;99835.56;4536363;28;20047;-62
2023/05/10 05:07:49;;;;;;;0.60;0.60;;;;;;;22.38;51.11;99843.00;4536586;28;20249;-62
2023/05/10 05:10:00;;;;;;;0.52;0.52;;;;;;;22.40;51.00;99854.94;4512913;28;20049;-62
2023/05/10 05:12:13;;;;;;;0.55;0.55;;;;;;;22.35;50.91;99853.25;4536658;28;20044;-62
2023/05/10 05:14:27;;;;;;;0.50;0.50;;;;;;;22.38;50.91;99863.97;4535298;28;20044;-63
2023/05/10 05:16:37;;;;;;;0.50;0.50;;;;;;;22.32;50.75;99835.97;4535394;28;20642;-62
2023/05/10 05:18:47;;;;;;;0.55;0.55;;;;;;;22.33;51.09;99857.75;4534670;28;20174;-63
2023/05/10 05:20:58;;;;;;;0.85;0.47;;;;;;;22.35;50.80;99863.94;4517655;28;20104;-63
2023/05/10 05:23:08;;;;;;;0.70;0.50;;;;;;;22.39;50.75;99870.56;4535237;28;20025;-62
2023/05/10 05:25:19;;;;;;;0.50;0.50;;;;;;;22.38;50.92;99874.63;4534340;28;20504;-62
2023/05/10 05:27:29;;;;;;;0.60;0.60;;;;;;;22.39;50.89;99882.06;4536582;28;20056;-63
2023/05/10 05:29:40;;;;;;;0.52;0.52;;;;;;;22.36;51.14;99877.09;4536239;28;20033;-63
2023/05/10 05:31:50;;;;;;;0.65;0.65;;;;;;;22.35;50.93;99876.25;4536620;28;20276;-63
2023/05/10 05:34:00;;;;;;;0.47;0.40;;;;;;;22.36;50.89;99880.78;4536347;28;20160;-62
2023/05/10 05:36:11;;;;;;;0.40;0.40;;;;;;;22.27;50.84;99870.84;4535902;28;20067;-63
2023/05/10 05:38:22;;;;;;;0.40;0.40;;;;;;;22.34;51.02;99885.28;4536257;28;20547;-63
2023/05/10 05:40:32;;;;;;;0.50;0.50;;;;;;;22.36;50.61;99894.34;4535978;28;20119;-62
2023/05/10 05:42:43;;;;;;;0.40;0.40;;;;;;;22.37;51.09;99896.84;4536251;28;20033;-63
2023/05/10 05:44:53;;;;;;;0.40;0.40;;;;;;;22.36;50.74;99900.91;4535929;28;20786;-62
2023/05/10 05:47:03;;;;;;;0.40;0.40;;;;;;;22.25;51.10;99879.06;4536540;28;20934;-62
2023/05/10 05:49:14;;;;;;;1.30;0.85;;;;;;;22.36;51.05;99895.16;4536329;28;20025;-63
2023/05/10 05:51:25;;;;;;;0.50;0.40;;;;;;;22.37;51.20;99907.50;4535324;28;20541;-63
2023/05/10 05:53:35;;;;;;;0.90;0.50;;;;;;;22.29;51.01;99897.97;4536668;28;20051;-62
2023/05/10 05:55:54;;;;;;;0.68;0.40;;;;;;;22.30;50.84;99893.03;4535674;28;20354;-63
2023/05/10 05:58:04;;;;;;;0.95;0.50;;;;;;;22.33;50.85;99907.44;4517553;28;20095;-63
2023/05/10 06:00:15;;;;;;;0.50;0.50;;;;;;;22.35;50.71;99909.94;4535526;28;20040;-62
2023/05/10 06:02:25;;;;;;;0.45;0.45;;;;;;;22.32;50.69;99904.97;4535906;28;20013;-63
2023/05/10 06:04:36;;;;;;;0.55;0.50;;;;;;;22.32;51.20;99910.72;4535960;28;20072;-63
2023/05/10 06:06:46;;;;;;;0.45;0.45;;;;;;;22.30;50.97;99904.53;4536421;28;20037;-62
2023/05/10 06:08:56;;;;;;;0.55;0.55;;;;;;;22.31;50.80;99915.63;4535978;28;20032;-62
2023/05/10 06:11:07;;;;;;;0.85;0.45;;;;;;;22.35;51.02;99912.81;4517573;28;20048;-62
2023/05/10 06:13:17;;;;;;;0.45;0.45;;;;;;;22.28;50.88;99909.88;4536037;28;20199;-63
2023/05/10 06:15:28;;;;;;;0.70;0.50;;;;;;;22.32;51.02;99904.97;4536025;28;20067;-63
2023/05/10 06:17:38;;;;;;;0.57;0.45;;;;;;;22.31;51.02;99920.59;4535676;28;20426;-63
2023/05/10 06:19:49;;;;;;;0.50;0.43;;;;;;;22.29;51.16;99923.84;4535537;28;20148;-62
2023/05/10 06:22:00;;;;;;;0.50;0.50;;;;;;;22.32;50.86;99930.84;4535744;28;20197;-63
2023/05/10 06:24:10;;;;;;;0.40;0.40;;;;;;;22.32;50.67;99928.81;4535864;28;20037;-64
2023/05/10 06:26:21;;;;;;;0.35;0.35;;;;;;;22.33;50.86;99941.13;4535819;28;20039;-63
2023/05/10 06:28:32;;;;;;;1.15;0.52;;;;;;;22.32;50.96;99928.81;4535852;28;20585;-63
2023/05/10 06:30:42;;;;;;;0.50;0.45;;;;;;;22.28;50.92;99933.69;4535679;28;20106;-62
2023/05/10 06:32:53;;;;;;;0.40;0.40;;;;;;;22.32;50.73;99940.31;4535740;28;20027;-62
2023/05/10 06:35:04;;;;;;;0.50;0.50;;;;;;;22.21;51.21;99917.19;4533966;28;20516;-62
2023/05/10 06:37:14;;;;;;;0.50;0.45;;;;;;;22.33;51.04;99949.75;4535023;28;20082;-62
2023/05/10 06:39:25;;;;;;;0.73;0.40;;;;;;;22.31;51.09;99941.50;4535115;28;20434;-63
2023/05/10 06:41:35;;;;;;;0.50;0.50;;;;;;;22.31;51.44;99937.84;4534815;28;20098;-63
2023/05/10 06:43:46;;;;;;;0.40;0.40;;;;;;;22.20;51.27;99923.31;4517553;28;20082;-62
2023/05/10 06:45:56;;;;;;;0.80;0.40;;;;;;;22.27;51.15;99943.53;4535017;28;20048;-62
2023/05/10 06:48:07;;;;;;;0.50;0.50;;;;;;;22.31;51.26;99946.47;4517366;28;20200;-62
2023/05/10 06:50:17;;;;;;;0.50;0.47;;;;;;;22.31;51.26;99955.09;4534944;28;20987;-62
2023/05/10 06:52:28;;;;;;;0.40;0.40;;;;;;;22.30;51.17;99957.13;4533135;28;20052;-62
2023/05/10 06:54:38;;;;;;;0.40;0.40;;;;;;;22.30;51.04;99951.38;4516043;28;20038;-62
2023/05/10 06:56:49;;;;;;;0.88;0.50;;;;;;;22.31;51.50;99960.84;4535401;28;20098;-62
2023/05/10 06:58:59;;;;;;;0.30;0.30;;;;;;;22.32;51.37;99956.72;4535879;28;20317;-62
2023/05/10 07:01:10;;;;;;;0.50;0.40;;;;;;;22.26;51.15;99956.28;4535200;28;20037;-62
2023/05/10 07:03:20;;;;;;;0.30;0.30;;;;;;;22.30;51.15;99962.03;4534738;28;20069;-62
2023/05/10 07:05:31;;;;;;;0.50;0.50;;;;;;;22.33;51.22;99961.25;4534737;28;20075;-62
2023/05/10 07:07:42;;;;;;;0.75;0.47;;;;;;;22.33;51.08;99967.00;4535378;28;20067;-62
2023/05/10 07:09:52;;;;;;;0.90;0.70;;;;;;;22.33;51.34;99964.13;4535701;28;21053;-62
2023/05/10 07:12:03;;;;;;;0.40;0.40;;;;;;;22.30;51.43;99957.13;4535307;28;20549;-62
2023/05/10 07:14:13;;;;;;;1.08;0.50;;;;;;;22.29;52.29;99958.34;4533286;28;20052;-62
2023/05/10 07:16:24;;;;;;;0.40;0.40;;;;;;;22.29;52.73;99954.66;4534358;28;20037;-62
2023/05/10 07:18:34;;;;;;;0.30;0.30;;;;;;;22.31;52.59;99963.72;4535239;28;20064;-62
2023/05/10 07:20:44;;;;;;;0.50;0.40;;;;;;;22.30;52.63;99973.53;4534565;28;20395;-62
2023/05/10 07:22:55;;;;;;;0.45;0.40;;;;;;;22.29;52.29;99966.97;4535192;28;20114;-62
2023/05/10 07:25:06;;;;;;;0.43;0.43;;;;;;;22.29;52.12;99972.72;4535454;28;20085;-62
2023/05/10 07:27:16;;;;;;;0.70;0.60;;;;;;;22.29;52.08;99975.59;4535688;28;20890;-62
2023/05/10 07:29:27;;;;;;;0.40;0.40;;;;;;;22.31;51.59;99978.09;4535002;28;20034;-62
2023/05/10 07:31:37;;;;;;;0.95;0.50;;;;;;;22.30;51.92;99987.91;4533563;28;20035;-62
2023/05/10 07:33:47;;;;;;;0.70;0.45;;;;;;;22.28;51.86;99973.94;4535308;28;20052;-62
2023/05/10 07:35:58;;;;;;;0.40;0.40;;;;;;;22.23;51.73;99966.50;4535416;28;20095;-62
2023/05/10 07:38:10;;;;;;;0.40;0.40;;;;;;;22.28;51.51;99973.13;4534460;28;20095;-62
2023/05/10 07:40:21;;;;;;;0.55;0.55;;;;;;;22.25;52.10;99974.72;4535537;28;20671;-63
2023/05/10 07:42:31;;;;;;;0.57;0.57;;;;;;;22.31;51.54;99978.09;4534988;28;20047;-64
2023/05/10 07:44:43;;;;;;;1.20;0.38;;;;;;;22.28;51.72;99973.94;4534595;28;20103;-64
2023/05/10 07:46:53;;;;;;;0.95;0.40;;;;;;;22.27;51.42;99972.28;4537011;28;20070;-64
2023/05/10 07:49:04;;;;;;;1.63;0.40;;;;;;;22.19;51.31;99962.75;4537518;28;20127;-63
2023/05/10 07:51:14;;;;;;;0.45;0.30;;;;;;;22.29;51.60;99974.78;4537560;28;20033;-65
2023/05/10 07:53:26;;;;;;;0.40;0.30;;;;;;;22.26;51.25;99967.78;4538362;28;20056;-63
2023/05/10 07:55:36;;;;;;;0.30;0.30;;;;;;;22.30;51.42;99980.13;4538366;28;20056;-64
2023/05/10 07:57:47;;;;;;;0.40;0.40;;;;;;;22.25;51.43;99980.47;4521450;28;20026;-62
2023/05/10 07:59:57;;;;;;;0.38;0.38;;;;;;;22.29;51.37;99977.66;4537722;28;20033;-62
2023/05/10 08:02:07;;;;;;;0.30;0.30;;;;;;;22.23;51.17;99970.59;4538062;28;20059;-62
2023/05/10 08:04:18;;;;;;;0.90;0.40;;;;;;;22.29;51.43;99980.53;4537481;28;20048;-62
2023/05/10 08:06:29;;;;;;;0.30;0.30;;;;;;;22.26;51.18;99987.06;4537496;28;20100;-63
2023/05/10 08:08:40;;;;;;;0.30;0.30;;;;;;;22.29;51.28;99987.09;4535660;28;20915;-62
2023/05/10 08:10:50;;;;;;;0.50;0.50;;;;;;;22.29;50.95;99994.91;4537186;28;20090;-62
2023/05/10 08:13:01;;;;;;;0.40;0.40;;;;;;;22.30;51.13;99999.41;4537990;28;20516;-62
2023/05/10 08:15:11;;;;;;;0.40;0.40;;;;;;;22.29;50.90;99997.78;4537048;28;20592;-62
2023/05/10 08:17:22;;;;;;;0.40;0.40;;;;;;;22.30;50.97;99999.41;4537249;28;20123;-62
2023/05/10 08:19:32;;;;;;;0.40;0.40;;;;;;;22.28;51.41;100001.88;4536955;28;20695;-62
2023/05/10 08:21:43;;;;;;;0.80;0.63;;;;;;;22.31;51.06;100012.59;4536719;28;20029;-62
2023/05/10 08:23:53;;;;;;;0.35;0.35;;;;;;;22.27;51.10;100008.81;4537128;28;20072;-62
2023/05/10 08:26:03;;;;;;;0.30;0.30;;;;;;;22.31;51.27;100015.47;4537353;28;20053;-62
2023/05/10 08:28:14;;;;;;;0.70;0.43;;;;;;;22.24;51.57;100007.56;4537180;28;20033;-62
2023/05/10 08:30:25;;;;;;;0.95;0.40;;;;;;;22.28;51.01;100016.25;4536402;28;20048;-62
2023/05/10 08:32:37;;;;;;;0.40;0.40;;;;;;;22.28;51.17;100013.38;4537280;28;20039;-62
2023/05/10 08:34:48;;;;;;;0.38;0.35;;;;;;;22.27;51.05;100017.44;4535904;28;20078;-62
2023/05/10 08:36:58;;;;;;;0.40;0.40;;;;;;;22.28;51.43;100007.63;4536270;28;20094;-62
2023/05/10 08:39:08;;;;;;;0.30;0.30;;;;;;;22.29;51.36;100015.84;4535727;28;20096;-62
2023/05/10 08:41:20;;;;;;;0.38;0.35;;;;;;;22.30;51.19;100022.41;4536703;28;20037;-62
2023/05/10 08:43:31;;;;;;;0.65;0.40;;;;;;;22.31;51.22;100024.09;4518491;28;20120;-62
2023/05/10 08:45:45;;;;;;;0.68;0.50;;;;;;;22.30;51.41;100023.25;4535731;28;20693;-62
2023/05/10 08:47:55;;;;;;;0.50;0.50;;;;;;;22.30;51.21;100022.41;4536173;28;20515;-64
2023/05/10 08:50:06;;;;;;;0.40;0.40;;;;;;;22.28;51.65;100027.75;4537153;28;20037;-62
2023/05/10 08:52:17;;;;;;;0.50;0.50;;;;;;;22.29;51.62;100026.53;4537354;28;20031;-62
2023/05/10 08:54:28;;;;;;;0.50;0.50;;;;;;;22.29;51.56;100026.53;4536997;28;20045;-62
2023/05/10 08:56:38;;;;;;;0.50;0.50;;;;;;;22.28;51.48;100024.88;4536466;28;20037;-62
2023/05/10 08:58:49;;;;;;;0.40;0.40;;;;;;;22.29;51.48;100030.22;4534175;28;20051;-62
2023/05/10 09:01:00;;;;;;;0.35;0.30;;;;;;;22.28;51.45;100030.63;4536915;28;20090;-62
2023/05/10 09:03:12;;;;;;;0.40;0.40;;;;;;;22.31;51.57;100029.84;4536814;28;20037;-63
2023/05/10 09:05:22;;;;;;;1.00;0.43;;;;;;;22.29;51.48;100029.41;4536482;28;20547;-62
2023/05/10 09:07:33;;;;;;;1.35;0.40;;;;;;;22.26;51.75;100033.91;4536562;28;20033;-62
2023/05/10 09:09:44;;;;;;;0.45;0.38;;;;;;;22.33;51.27;100028.22;4537174;28;20040;-62
2023/05/10 09:11:54;;;;;;;0.50;0.47;;;;;;;22.29;51.51;100030.22;4536197;28;20037;-63
2023/05/10 09:14:05;;;;;;;0.47;0.30;;;;;;;22.31;51.25;100030.66;4518309;28;20049;-62
2023/05/10 09:16:16;;;;;;;0.40;0.40;;;;;;;22.32;51.51;100042.97;4536091;28;20120;-62
2023/05/10 09:18:26;;;;;;;0.40;0.40;;;;;;;22.30;51.55;100031.03;4535799;28;20829;-62
2023/05/10 09:20:36;;;;;;;0.50;0.32;;;;;;;22.33;51.44;100030.25;4535042;28;20518;-63
2023/05/10 09:22:47;;;;;;;0.60;0.60;;;;;;;22.34;51.36;100041.38;4536350;28;20115;-62
2023/05/10 09:25:27;;;;;;;0.40;0.40;;;;;;;22.12;51.81;99999.19;4535592;28;20455;-63
2023/05/10 09:27:39;;;;;;;0.75;0.50;;;;;;;22.33;51.97;100042.59;4520593;28;20634;-62
2023/05/10 09:29:54;;;;;;;1.70;0.75;;;;;;;22.31;52.00;100044.22;4517504;28;20104;-62
2023/05/10 09:32:04;;;;;;;2.20;0.88;;;;;;;22.30;54.27;100034.75;4535482;28;20174;-63
2023/05/10 09:34:19;;;;;;;1.85;0.75;;;;;;;22.31;53.49;100035.59;4535610;28;20167;-64
2023/05/10 09:36:30;;;;;;;2.55;0.70;;;;;;;22.29;54.31;100038.84;4535271;28;20025;-62
2023/05/10 09:38:46;;;;;;;3.75;0.80;;;;;;;22.38;54.00;100041.41;4535511;28;20033;-62
2023/05/10 09:40:57;;;;;;;3.53;0.85;;;;;;;22.17;55.40;100005.44;4535622;28;20040;-64
2023/05/10 09:43:08;;;;;;;3.70;1.10;;;;;;;22.39;55.50;100043.09;4515194;28;20057;-62
2023/05/10 09:45:18;;;;;;;4.13;1.05;;;;;;;22.34;55.32;100035.63;4534755;28;20804;-62
2023/05/10 09:47:31;;;;;;;3.28;1.23;;;;;;;22.40;55.50;100044.72;4535325;28;20025;-62
2023/05/10 09:49:41;;;;;;;5.65;1.42;;;;;;;22.40;55.08;100044.72;4535317;28;20043;-62
2023/05/10 09:52:02;;;;;;;3.78;1.30;;;;;;;22.41;54.42;100052.94;4534576;28;20064;-62
2023/05/10 09:54:15;;;;;;;3.45;1.00;;;;;;;22.42;54.06;100059.53;4535153;28;20607;-63
2023/05/10 09:56:38;;;;;;;3.30;1.33;;;;;;;22.43;54.08;100052.56;4516496;28;20034;-62
2023/05/10 09:59:02;;;;;;;3.42;1.23;;;;;;;22.43;53.97;100055.44;4534721;28;20626;-62
2023/05/10 10:01:13;;;;;;;3.40;1.40;;;;;;;22.43;53.84;100055.44;4516765;28;20033;-62
2023/05/10 10:03:24;;;;;;;6.40;1.35;;;;;;;22.40;53.82;100051.31;4534585;28;20470;-62
2023/05/10 10:05:35;;;;;;;4.85;1.98;;;;;;;22.42;54.00;100048.03;4534326;28;20660;-62
2023/05/10 10:07:46;;;;;;;5.97;1.80;;;;;;;22.42;54.18;100048.03;4534570;28;20693;-63
2023/05/10 10:09:59;;;;;;;6.93;1.90;;;;;;;22.42;54.17;100048.84;4535186;28;20029;-62
2023/05/10 10:12:09;;;;;;;8.45;1.80;;;;;;;22.29;53.99;100026.53;4535129;28;20119;-63
2023/05/10 10:14:21;;;;;;;4.28;1.63;;;;;;;22.39;53.78;100040.22;4532532;28;20098;-63
2023/05/10 10:16:32;;;;;;;3.33;1.50;;;;;;;22.44;53.98;100045.59;4535165;28;20037;-63
2023/05/10 10:18:43;;;;;;;5.07;1.60;;;;;;;22.44;53.96;100039.84;4534957;28;20061;-64
2023/05/10 10:20:55;;;;;;;4.75;1.90;;;;;;;22.45;53.62;100048.09;4534506;28;20043;-63